Hauptseite
METAR-TAF:

METAR-TAF

Flughäfen :

Somerset Airport

Somerville, New Jersey, Vereinigte Staaten

Breite: 40-37-26N, Länge: 074-40-10W, Höhe: 32 m

Beobachtung

Neuester Wetterbericht von vor 20 Minuten, um 02:05 UTC
Windstille
Temperatur 13°C
Luftfeuchtigkeit 88%
Luftdruck 1024 hPa
Sichtweite: 16.1 km
Durchbrochene Bewölkung in der Höhe von 1600 ft

METAR: KSMQ 250205Z AUTO 00000KT 10SM BKN016 13/11 A3023 RMK AO2 T01330111

Zeit: 22:25 (02:25 UTC)


TAF: fehlend

Wetterbeobachtungen und Prognosen von mehr als 4000 Flughäfen (METAR und TAF Bericht).

Die verfügbaren Stationen werden durch gelbe und rote Markierungen auf der Karte dargestellt.

Führen Sie die Maus auf sie, um den Namen der Station zu sehen.

Darauf klicken, um die Beobachtung von Wetterbeobachtungen und Prognosen zu sehen.

Um die Karte zu ändern : klicken Sie auf den grünen Tasten mit einem schwarzen Kreuz Zum Vergrößern, auf den grünen Button mit einem Gedankenstrich zu verkleinern, oder auf die grünen Pfeile für benachbarte Karten.


METAR-TAF: